sensor_id;sensor_type;location;lat;lon;timestamp;pressure;altitude;pressure_sealevel;temperature;humidity
12775;BME280;6451;42.630;23.382;2023-02-28T00:00:11;94895.00;;;6.48;100.00
12775;BME280;6451;42.630;23.382;2023-02-28T00:02:40;94882.88;;;6.37;100.00
12775;BME280;6451;42.630;23.382;2023-02-28T00:05:09;94892.28;;;6.48;100.00
12775;BME280;6451;42.630;23.382;2023-02-28T00:07:36;94885.31;;;6.47;100.00
12775;BME280;6451;42.630;23.382;2023-02-28T00:10:05;94807.16;;;6.02;100.00
12775;BME280;6451;42.630;23.382;2023-02-28T00:12:34;94901.38;;;6.52;100.00
12775;BME280;6451;42.630;23.382;2023-02-28T00:15:01;94899.75;;;6.51;100.00
12775;BME280;6451;42.630;23.382;2023-02-28T00:17:29;94890.75;;;6.56;100.00
12775;BME280;6451;42.630;23.382;2023-02-28T00:19:55;94901.59;;;6.64;100.00
12775;BME280;6451;42.630;23.382;2023-02-28T00:22:27;94885.38;;;6.56;100.00
12775;BME280;6451;42.630;23.382;2023-02-28T00:24:54;94858.97;;;6.44;100.00
12775;BME280;6451;42.630;23.382;2023-02-28T00:27:21;94884.06;;;6.76;100.00
12775;BME280;6451;42.630;23.382;2023-02-28T00:29:49;94889.94;;;6.78;100.00
12775;BME280;6451;42.630;23.382;2023-02-28T00:32:18;94878.13;;;6.65;100.00
12775;BME280;6451;42.630;23.382;2023-02-28T00:34:45;94900.00;;;6.86;100.00
12775;BME280;6451;42.630;23.382;2023-02-28T00:37:12;94891.22;;;6.80;100.00
12775;BME280;6451;42.630;23.382;2023-02-28T00:39:40;94851.84;;;6.48;100.00
12775;BME280;6451;42.630;23.382;2023-02-28T00:42:08;94872.22;;;6.85;100.00
12775;BME280;6451;42.630;23.382;2023-02-28T00:44:35;94881.00;;;6.91;100.00
12775;BME280;6451;42.630;23.382;2023-02-28T00:47:04;94868.28;;;6.60;100.00
12775;BME280;6451;42.630;23.382;2023-02-28T00:49:31;94868.09;;;6.57;100.00
12775;BME280;6451;42.630;23.382;2023-02-28T00:51:58;94849.56;;;6.64;100.00
12775;BME280;6451;42.630;23.382;2023-02-28T00:54:26;94866.00;;;6.54;100.00
12775;BME280;6451;42.630;23.382;2023-02-28T00:56:53;94874.63;;;6.42;100.00
12775;BME280;6451;42.630;23.382;2023-02-28T00:59:20;94789.81;;;5.95;100.00
12775;BME280;6451;42.630;23.382;2023-02-28T01:01:47;94826.44;;;6.18;100.00
12775;BME280;6451;42.630;23.382;2023-02-28T01:04:15;94865.53;;;6.29;100.00
12775;BME280;6451;42.630;23.382;2023-02-28T01:06:42;94892.34;;;6.57;100.00
12775;BME280;6451;42.630;23.382;2023-02-28T01:09:10;94871.22;;;6.50;100.00
12775;BME280;6451;42.630;23.382;2023-02-28T01:11:39;94827.59;;;6.26;100.00
12775;BME280;6451;42.630;23.382;2023-02-28T01:14:11;94869.06;;;6.61;100.00
12775;BME280;6451;42.630;23.382;2023-02-28T01:16:41;94865.06;;;6.58;100.00
12775;BME280;6451;42.630;23.382;2023-02-28T01:19:08;94882.72;;;6.64;100.00
12775;BME280;6451;42.630;23.382;2023-02-28T01:21:36;94870.72;;;6.48;100.00
12775;BME280;6451;42.630;23.382;2023-02-28T01:24:04;94874.63;;;6.64;100.00
12775;BME280;6451;42.630;23.382;2023-02-28T01:26:32;94880.66;;;6.61;100.00
12775;BME280;6451;42.630;23.382;2023-02-28T01:28:59;94853.59;;;6.44;100.00
12775;BME280;6451;42.630;23.382;2023-02-28T01:31:26;94873.66;;;6.60;100.00
12775;BME280;6451;42.630;23.382;2023-02-28T01:33:53;94866.19;;;6.57;100.00
12775;BME280;6451;42.630;23.382;2023-02-28T01:36:21;94876.97;;;6.57;100.00
12775;BME280;6451;42.630;23.382;2023-02-28T01:38:50;94849.78;;;6.23;100.00
12775;BME280;6451;42.630;23.382;2023-02-28T01:41:20;94886.53;;;6.41;100.00
12775;BME280;6451;42.630;23.382;2023-02-28T01:43:59;94868.13;;;6.21;100.00
12775;BME280;6451;42.630;23.382;2023-02-28T01:46:29;94883.41;;;6.48;100.00
12775;BME280;6451;42.630;23.382;2023-02-28T01:49:01;94876.84;;;6.18;100.00
12775;BME280;6451;42.630;23.382;2023-02-28T01:51:32;94855.00;;;6.05;100.00
12775;BME280;6451;42.630;23.382;2023-02-28T01:54:04;94885.84;;;6.35;100.00
12775;BME280;6451;42.630;23.382;2023-02-28T01:56:43;94862.03;;;6.29;100.00
12775;BME280;6451;42.630;23.382;2023-02-28T01:59:12;94889.34;;;6.36;100.00
12775;BME280;6451;42.630;23.382;2023-02-28T02:01:40;94882.63;;;6.47;100.00
12775;BME280;6451;42.630;23.382;2023-02-28T02:04:09;94892.50;;;6.52;100.00
12775;BME280;6451;42.630;23.382;2023-02-28T02:06:39;94892.50;;;6.52;100.00
12775;BME280;6451;42.630;23.382;2023-02-28T02:09:08;94890.44;;;6.57;100.00
12775;BME280;6451;42.630;23.382;2023-02-28T02:11:36;94879.00;;;6.52;100.00
12775;BME280;6451;42.630;23.382;2023-02-28T02:14:23;94898.53;;;6.35;100.00
12775;BME280;6451;42.630;23.382;2023-02-28T02:17:08;94863.25;;;6.23;100.00
12775;BME280;6451;42.630;23.382;2023-02-28T02:25:40;94885.84;;;6.58;100.00
12775;BME280;6451;42.630;23.382;2023-02-28T02:28:32;94860.00;;;6.34;100.00
12775;BME280;6451;42.630;23.382;2023-02-28T02:34:35;94871.16;;;6.64;100.00
12775;BME280;6451;42.630;23.382;2023-02-28T02:37:13;94874.31;;;6.66;100.00
12775;BME280;6451;42.630;23.382;2023-02-28T02:39:48;94880.13;;;6.59;100.00
12775;BME280;6451;42.630;23.382;2023-02-28T02:42:23;94886.09;;;6.48;100.00
12775;BME280;6451;42.630;23.382;2023-02-28T02:44:57;94869.41;;;6.37;100.00
12775;BME280;6451;42.630;23.382;2023-02-28T02:47:29;94888.53;;;6.35;100.00
12775;BME280;6451;42.630;23.382;2023-02-28T02:50:02;94838.50;;;5.84;100.00
12775;BME280;6451;42.630;23.382;2023-02-28T02:52:37;94818.28;;;5.73;100.00
12775;BME280;6451;42.630;23.382;2023-02-28T02:55:08;94882.50;;;6.30;100.00
12775;BME280;6451;42.630;23.382;2023-02-28T02:57:41;94886.88;;;6.26;100.00
12775;BME280;6451;42.630;23.382;2023-02-28T03:00:12;94905.09;;;6.43;100.00
12775;BME280;6451;42.630;23.382;2023-02-28T03:02:41;94891.97;;;6.27;100.00
12775;BME280;6451;42.630;23.382;2023-02-28T03:05:15;94914.31;;;6.28;100.00
12775;BME280;6451;42.630;23.382;2023-02-28T03:07:44;94929.19;;;6.39;100.00
12775;BME280;6451;42.630;23.382;2023-02-28T03:10:34;94921.63;;;6.50;100.00
12775;BME280;6451;42.630;23.382;2023-02-28T03:16:08;94933.47;;;6.40;100.00
12775;BME280;6451;42.630;23.382;2023-02-28T03:18:49;94940.72;;;6.17;100.00
12775;BME280;6451;42.630;23.382;2023-02-28T03:21:26;94882.97;;;5.96;100.00
12775;BME280;6451;42.630;23.382;2023-02-28T03:24:00;94942.31;;;6.18;100.00
12775;BME280;6451;42.630;23.382;2023-02-28T03:26:31;94955.22;;;6.07;100.00
12775;BME280;6451;42.630;23.382;2023-02-28T03:29:04;94957.69;;;6.04;100.00
12775;BME280;6451;42.630;23.382;2023-02-28T03:31:37;94948.72;;;5.95;100.00
12775;BME280;6451;42.630;23.382;2023-02-28T03:34:08;94939.84;;;5.94;100.00
12775;BME280;6451;42.630;23.382;2023-02-28T03:36:44;94931.44;;;5.82;100.00
12775;BME280;6451;42.630;23.382;2023-02-28T03:39:14;94905.34;;;5.69;100.00
12775;BME280;6451;42.630;23.382;2023-02-28T03:41:44;94946.84;;;5.95;100.00
12775;BME280;6451;42.630;23.382;2023-02-28T03:44:17;94926.06;;;5.82;100.00
12775;BME280;6451;42.630;23.382;2023-02-28T03:46:49;94885.59;;;5.59;100.00
12775;BME280;6451;42.630;23.382;2023-02-28T03:49:23;94956.81;;;5.95;100.00
12775;BME280;6451;42.630;23.382;2023-02-28T03:51:56;94961.19;;;6.04;100.00
12775;BME280;6451;42.630;23.382;2023-02-28T03:54:30;94956.81;;;5.95;100.00
12775;BME280;6451;42.630;23.382;2023-02-28T03:57:02;94955.41;;;5.83;100.00
12775;BME280;6451;42.630;23.382;2023-02-28T03:59:33;94842.09;;;5.30;100.00
12775;BME280;6451;42.630;23.382;2023-02-28T04:02:01;94961.59;;;5.98;100.00
12775;BME280;6451;42.630;23.382;2023-02-28T04:04:28;94939.13;;;5.89;100.00
12775;BME280;6451;42.630;23.382;2023-02-28T04:07:03;94958.22;;;6.06;100.00
12775;BME280;6451;42.630;23.382;2023-02-28T04:09:31;94953.41;;;6.03;100.00
12775;BME280;6451;42.630;23.382;2023-02-28T04:11:58;94949.22;;;5.83;100.00
12775;BME280;6451;42.630;23.382;2023-02-28T04:14:25;94945.84;;;5.77;100.00
12775;BME280;6451;42.630;23.382;2023-02-28T04:16:52;94959.09;;;5.74;100.00
12775;BME280;6451;42.630;23.382;2023-02-28T04:19:19;94959.00;;;5.79;100.00
12775;BME280;6451;42.630;23.382;2023-02-28T04:21:48;94949.31;;;5.78;100.00
12775;BME280;6451;42.630;23.382;2023-02-28T04:24:20;94954.81;;;5.73;100.00
12775;BME280;6451;42.630;23.382;2023-02-28T04:26:49;94942.56;;;5.53;100.00
12775;BME280;6451;42.630;23.382;2023-02-28T04:29:19;94948.31;;;5.74;100.00
12775;BME280;6451;42.630;23.382;2023-02-28T04:31:46;94912.94;;;5.39;100.00
12775;BME280;6451;42.630;23.382;2023-02-28T04:34:14;94950.53;;;5.72;100.00
12775;BME280;6451;42.630;23.382;2023-02-28T04:36:41;94960.00;;;5.55;100.00
12775;BME280;6451;42.630;23.382;2023-02-28T04:39:08;94970.69;;;5.61;100.00
12775;BME280;6451;42.630;23.382;2023-02-28T04:41:37;94950.22;;;5.59;100.00
12775;BME280;6451;42.630;23.382;2023-02-28T04:44:04;94980.34;;;5.62;100.00
12775;BME280;6451;42.630;23.382;2023-02-28T04:46:31;94958.97;;;5.51;100.00
12775;BME280;6451;42.630;23.382;2023-02-28T04:48:59;94914.50;;;5.13;100.00
12775;BME280;6451;42.630;23.382;2023-02-28T04:51:26;94988.81;;;5.69;100.00
12775;BME280;6451;42.630;23.382;2023-02-28T04:53:53;94979.25;;;5.63;100.00
12775;BME280;6451;42.630;23.382;2023-02-28T04:56:20;94992.09;;;5.66;100.00
12775;BME280;6451;42.630;23.382;2023-02-28T04:58:49;94970.38;;;5.62;100.00
12775;BME280;6451;42.630;23.382;2023-02-28T05:01:23;94975.56;;;5.45;100.00
12775;BME280;6451;42.630;23.382;2023-02-28T05:03:52;94985.41;;;5.49;100.00
12775;BME280;6451;42.630;23.382;2023-02-28T05:06:20;94980.13;;;5.58;100.00
12775;BME280;6451;42.630;23.382;2023-02-28T05:08:49;94988.59;;;5.51;100.00
12775;BME280;6451;42.630;23.382;2023-02-28T05:11:18;94987.22;;;5.54;100.00
12775;BME280;6451;42.630;23.382;2023-02-28T05:13:45;94990.72;;;5.54;100.00
12775;BME280;6451;42.630;23.382;2023-02-28T05:16:14;94993.81;;;5.62;100.00
12775;BME280;6451;42.630;23.382;2023-02-28T05:18:41;94922.84;;;4.97;100.00
12775;BME280;6451;42.630;23.382;2023-02-28T05:21:22;94997.28;;;5.62;100.00
12775;BME280;6451;42.630;23.382;2023-02-28T05:23:50;95001.50;;;5.68;100.00
12775;BME280;6451;42.630;23.382;2023-02-28T05:26:17;94998.78;;;5.68;100.00
12775;BME280;6451;42.630;23.382;2023-02-28T05:28:44;95009.03;;;5.66;100.00
12775;BME280;6451;42.630;23.382;2023-02-28T05:31:11;95002.84;;;5.52;100.00
12775;BME280;6451;42.630;23.382;2023-02-28T05:33:41;94943.91;;;5.09;100.00
12775;BME280;6451;42.630;23.382;2023-02-28T05:36:08;94997.69;;;5.55;100.00
12775;BME280;6451;42.630;23.382;2023-02-28T05:38:35;95010.47;;;5.77;100.00
12775;BME280;6451;42.630;23.382;2023-02-28T05:41:05;95005.16;;;5.72;100.00
12775;BME280;6451;42.630;23.382;2023-02-28T05:43:32;95023.31;;;5.67;100.00
12775;BME280;6451;42.630;23.382;2023-02-28T05:46:01;94999.72;;;5.91;100.00
12775;BME280;6451;42.630;23.382;2023-02-28T05:48:28;95007.47;;;6.20;100.00
12775;BME280;6451;42.630;23.382;2023-02-28T05:50:57;95008.47;;;6.24;100.00
12775;BME280;6451;42.630;23.382;2023-02-28T05:53:24;95031.38;;;6.49;100.00
12775;BME280;6451;42.630;23.382;2023-02-28T05:55:51;95013.81;;;6.74;100.00
12775;BME280;6451;42.630;23.382;2023-02-28T05:58:18;95022.81;;;6.83;100.00
12775;BME280;6451;42.630;23.382;2023-02-28T06:00:47;95025.19;;;7.07;100.00
12775;BME280;6451;42.630;23.382;2023-02-28T06:03:14;94990.50;;;6.92;100.00
12775;BME280;6451;42.630;23.382;2023-02-28T06:05:41;95008.38;;;7.10;100.00
12775;BME280;6451;42.630;23.382;2023-02-28T06:08:11;95015.69;;;6.87;100.00
12775;BME280;6451;42.630;23.382;2023-02-28T06:10:37;95021.66;;;6.98;100.00
12775;BME280;6451;42.630;23.382;2023-02-28T06:13:06;94999.59;;;7.05;100.00
12775;BME280;6451;42.630;23.382;2023-02-28T06:15:34;95021.03;;;7.01;100.00
12775;BME280;6451;42.630;23.382;2023-02-28T06:18:01;95017.47;;;6.92;100.00
12775;BME280;6451;42.630;23.382;2023-02-28T06:20:28;95014.88;;;6.87;100.00
12775;BME280;6451;42.630;23.382;2023-02-28T06:22:55;95016.16;;;6.89;100.00
12775;BME280;6451;42.630;23.382;2023-02-28T06:25:26;95012.81;;;6.84;100.00
12775;BME280;6451;42.630;23.382;2023-02-28T06:27:55;95025.63;;;7.01;100.00
12775;BME280;6451;42.630;23.382;2023-02-28T06:30:22;95030.44;;;6.90;100.00
12775;BME280;6451;42.630;23.382;2023-02-28T06:32:52;95025.78;;;6.82;100.00
12775;BME280;6451;42.630;23.382;2023-02-28T06:35:19;95026.22;;;6.75;100.00
12775;BME280;6451;42.630;23.382;2023-02-28T06:37:46;95036.28;;;6.83;100.00
12775;BME280;6451;42.630;23.382;2023-02-28T06:40:14;95040.88;;;6.83;100.00
12775;BME280;6451;42.630;23.382;2023-02-28T06:42:42;95025.78;;;6.82;100.00
12775;BME280;6451;42.630;23.382;2023-02-28T06:45:10;95040.94;;;6.91;100.00
12775;BME280;6451;42.630;23.382;2023-02-28T06:47:38;95019.84;;;6.71;100.00
12775;BME280;6451;42.630;23.382;2023-02-28T06:50:06;95042.59;;;6.79;100.00
12775;BME280;6451;42.630;23.382;2023-02-28T06:52:35;95044.47;;;6.78;100.00
12775;BME280;6451;42.630;23.382;2023-02-28T06:55:03;95028.22;;;6.69;100.00
12775;BME280;6451;42.630;23.382;2023-02-28T06:57:30;95037.84;;;6.98;100.00
12775;BME280;6451;42.630;23.382;2023-02-28T07:00:00;95031.63;;;6.75;100.00
12775;BME280;6451;42.630;23.382;2023-02-28T07:02:27;95043.03;;;6.94;100.00
12775;BME280;6451;42.630;23.382;2023-02-28T07:04:54;95045.41;;;6.96;100.00
12775;BME280;6451;42.630;23.382;2023-02-28T07:07:21;95041.50;;;7.02;100.00
12775;BME280;6451;42.630;23.382;2023-02-28T07:09:48;95044.41;;;7.06;100.00
12775;BME280;6451;42.630;23.382;2023-02-28T07:12:15;95043.16;;;7.12;100.00
12775;BME280;6451;42.630;23.382;2023-02-28T07:14:42;95041.75;;;7.37;100.00
12775;BME280;6451;42.630;23.382;2023-02-28T07:17:11;95036.22;;;7.42;100.00
12775;BME280;6451;42.630;23.382;2023-02-28T07:19:38;95032.09;;;7.44;100.00
12775;BME280;6451;42.630;23.382;2023-02-28T07:22:05;95001.38;;;7.32;100.00
12775;BME280;6451;42.630;23.382;2023-02-28T07:24:32;95017.94;;;7.39;100.00
12775;BME280;6451;42.630;23.382;2023-02-28T07:27:00;95048.72;;;7.60;100.00
12775;BME280;6451;42.630;23.382;2023-02-28T07:29:27;95026.91;;;7.57;100.00
12775;BME280;6451;42.630;23.382;2023-02-28T07:31:54;95038.84;;;7.95;100.00
12775;BME280;6451;42.630;23.382;2023-02-28T07:34:22;95011.88;;;8.13;100.00
12775;BME280;6451;42.630;23.382;2023-02-28T07:36:52;95028.50;;;8.28;100.00
12775;BME280;6451;42.630;23.382;2023-02-28T07:39:20;95031.75;;;8.56;100.00
12775;BME280;6451;42.630;23.382;2023-02-28T07:41:47;95011.69;;;8.49;100.00
12775;BME280;6451;42.630;23.382;2023-02-28T07:44:14;95016.47;;;8.60;100.00
12775;BME280;6451;42.630;23.382;2023-02-28T07:46:41;95023.34;;;8.84;100.00
12775;BME280;6451;42.630;23.382;2023-02-28T07:49:08;95020.78;;;8.96;100.00
12775;BME280;6451;42.630;23.382;2023-02-28T07:51:36;95019.34;;;9.07;100.00
12775;BME280;6451;42.630;23.382;2023-02-28T07:54:05;95028.56;;;9.24;100.00
12775;BME280;6451;42.630;23.382;2023-02-28T07:56:32;95018.88;;;9.23;100.00
12775;BME280;6451;42.630;23.382;2023-02-28T07:58:58;95023.47;;;9.31;100.00
12775;BME280;6451;42.630;23.382;2023-02-28T08:01:27;94999.03;;;9.57;100.00
12775;BME280;6451;42.630;23.382;2023-02-28T08:03:53;95011.16;;;9.59;100.00
12775;BME280;6451;42.630;23.382;2023-02-28T08:06:23;95012.47;;;9.36;100.00
12775;BME280;6451;42.630;23.382;2023-02-28T08:08:53;95028.50;;;9.58;100.00
12775;BME280;6451;42.630;23.382;2023-02-28T08:11:21;95023.09;;;9.58;100.00
12775;BME280;6451;42.630;23.382;2023-02-28T08:13:48;95030.72;;;9.65;100.00
12775;BME280;6451;42.630;23.382;2023-02-28T08:16:15;94990.81;;;9.36;100.00
12775;BME280;6451;42.630;23.382;2023-02-28T08:18:47;95020.00;;;9.77;100.00
12775;BME280;6451;42.630;23.382;2023-02-28T08:21:14;95028.06;;;9.94;100.00
12775;BME280;6451;42.630;23.382;2023-02-28T08:23:41;95028.84;;;10.03;100.00
12775;BME280;6451;42.630;23.382;2023-02-28T08:26:09;94987.16;;;9.79;100.00
12775;BME280;6451;42.630;23.382;2023-02-28T08:28:36;95015.78;;;10.06;100.00
12775;BME280;6451;42.630;23.382;2023-02-28T08:31:07;95017.81;;;10.09;100.00
12775;BME280;6451;42.630;23.382;2023-02-28T08:33:34;95021.31;;;10.09;100.00
12775;BME280;6451;42.630;23.382;2023-02-28T08:36:01;95001.03;;;10.15;100.00
12775;BME280;6451;42.630;23.382;2023-02-28T08:38:28;95030.19;;;10.36;100.00
12775;BME280;6451;42.630;23.382;2023-02-28T08:40:57;95029.31;;;10.44;100.00
12775;BME280;6451;42.630;23.382;2023-02-28T08:43:27;94995.25;;;10.25;100.00
12775;BME280;6451;42.630;23.382;2023-02-28T08:45:55;94997.66;;;10.27;100.00
12775;BME280;6451;42.630;23.382;2023-02-28T08:48:23;94994.63;;;10.49;100.00
12775;BME280;6451;42.630;23.382;2023-02-28T08:50:57;95016.84;;;10.51;100.00
12775;BME280;6451;42.630;23.382;2023-02-28T08:53:24;95017.41;;;10.57;100.00
12775;BME280;6451;42.630;23.382;2023-02-28T08:55:58;94998.97;;;10.71;100.00
12775;BME280;6451;42.630;23.382;2023-02-28T08:58:26;95010.88;;;10.79;100.00
12775;BME280;6451;42.630;23.382;2023-02-28T09:00:53;95005.31;;;10.54;100.00
12775;BME280;6451;42.630;23.382;2023-02-28T09:03:20;95017.34;;;10.66;100.00
12775;BME280;6451;42.630;23.382;2023-02-28T09:05:55;95003.41;;;10.76;100.00
12775;BME280;6451;42.630;23.382;2023-02-28T09:08:23;95007.56;;;10.73;100.00
12775;BME280;6451;42.630;23.382;2023-02-28T09:10:51;95012.00;;;10.78;100.00
12775;BME280;6451;42.630;23.382;2023-02-28T09:13:18;95004.00;;;11.02;100.00
12775;BME280;6451;42.630;23.382;2023-02-28T09:15:46;95002.81;;;11.12;100.00
12775;BME280;6451;42.630;23.382;2023-02-28T09:18:14;95000.94;;;11.04;100.00
12775;BME280;6451;42.630;23.382;2023-02-28T09:20:41;94999.22;;;11.20;100.00
12775;BME280;6451;42.630;23.382;2023-02-28T09:23:34;95000.28;;;11.28;100.00
12775;BME280;6451;42.630;23.382;2023-02-28T09:26:04;95003.44;;;11.30;100.00
12775;BME280;6451;42.630;23.382;2023-02-28T09:28:31;95002.75;;;11.33;100.00
12775;BME280;6451;42.630;23.382;2023-02-28T09:30:59;94997.31;;;11.33;100.00
12775;BME280;6451;42.630;23.382;2023-02-28T09:33:26;95000.63;;;11.38;100.00
12775;BME280;6451;42.630;23.382;2023-02-28T09:35:58;95002.13;;;11.48;100.00
12775;BME280;6451;42.630;23.382;2023-02-28T09:38:28;95002.94;;;11.49;100.00
12775;BME280;6451;42.630;23.382;2023-02-28T09:40:56;94996.59;;;11.57;100.00
12775;BME280;6451;42.630;23.382;2023-02-28T09:43:26;94997.00;;;11.34;100.00
12775;BME280;6451;42.630;23.382;2023-02-28T09:46:02;94996.00;;;11.39;100.00
12775;BME280;6451;42.630;23.382;2023-02-28T09:48:36;94985.31;;;11.34;100.00
12775;BME280;6451;42.630;23.382;2023-02-28T09:51:12;94981.63;;;11.38;100.00
12775;BME280;6451;42.630;23.382;2023-02-28T09:53:42;94991.72;;;11.17;100.00
12775;BME280;6451;42.630;23.382;2023-02-28T09:56:11;94996.81;;;11.19;100.00
12775;BME280;6451;42.630;23.382;2023-02-28T09:58:44;94975.47;;;11.29;100.00
12775;BME280;6451;42.630;23.382;2023-02-28T10:01:23;94938.81;;;11.02;100.00
12775;BME280;6451;42.630;23.382;2023-02-28T10:03:55;94985.16;;;11.18;100.00
12775;BME280;6451;42.630;23.382;2023-02-28T10:06:28;94982.25;;;11.02;100.00
12775;BME280;6451;42.630;23.382;2023-02-28T10:09:00;94989.25;;;11.57;100.00
12775;BME280;6451;42.630;23.382;2023-02-28T10:11:30;94959.09;;;11.38;100.00
12775;BME280;6451;42.630;23.382;2023-02-28T10:14:02;94957.72;;;11.32;100.00
12775;BME280;6451;42.630;23.382;2023-02-28T10:16:35;94973.66;;;11.21;100.00
12775;BME280;6451;42.630;23.382;2023-02-28T10:19:06;94979.25;;;11.49;100.00
12775;BME280;6451;42.630;23.382;2023-02-28T10:21:41;94969.00;;;11.22;100.00
12775;BME280;6451;42.630;23.382;2023-02-28T10:24:19;94980.94;;;11.41;100.00
12775;BME280;6451;42.630;23.382;2023-02-28T10:26:48;94983.41;;;11.34;100.00
12775;BME280;6451;42.630;23.382;2023-02-28T10:29:15;94976.63;;;11.40;100.00
12775;BME280;6451;42.630;23.382;2023-02-28T10:31:43;94969.00;;;11.22;100.00
12775;BME280;6451;42.630;23.382;2023-02-28T10:34:12;94954.91;;;11.40;100.00
12775;BME280;6451;42.630;23.382;2023-02-28T10:36:39;94959.81;;;11.72;100.00
12775;BME280;6451;42.630;23.382;2023-02-28T10:39:37;94949.69;;;11.93;100.00
12775;BME280;6451;42.630;23.382;2023-02-28T10:42:19;94943.69;;;12.00;100.00
12775;BME280;6451;42.630;23.382;2023-02-28T10:44:46;94941.44;;;11.89;100.00
12775;BME280;6451;42.630;23.382;2023-02-28T10:47:16;94928.28;;;11.91;100.00
12775;BME280;6451;42.630;23.382;2023-02-28T10:49:48;94931.66;;;12.01;100.00
12775;BME280;6451;42.630;23.382;2023-02-28T10:52:36;94931.78;;;12.16;100.00
12775;BME280;6451;42.630;23.382;2023-02-28T10:55:20;94926.34;;;12.16;100.00
12775;BME280;6451;42.630;23.382;2023-02-28T10:57:48;94919.97;;;12.37;100.00
12775;BME280;6451;42.630;23.382;2023-02-28T11:00:17;94907.50;;;12.23;100.00
12775;BME280;6451;42.630;23.382;2023-02-28T11:02:47;94909.44;;;12.35;100.00
12775;BME280;6451;42.630;23.382;2023-02-28T11:05:27;94914.88;;;12.23;100.00
12775;BME280;6451;42.630;23.382;2023-02-28T11:07:56;94907.94;;;12.25;100.00
12775;BME280;6451;42.630;23.382;2023-02-28T11:10:28;94906.09;;;12.54;100.00
12775;BME280;6451;42.630;23.382;2023-02-28T11:12:57;94897.91;;;12.54;100.00
12775;BME280;6451;42.630;23.382;2023-02-28T11:15:27;94908.25;;;12.48;100.00
12775;BME280;6451;42.630;23.382;2023-02-28T11:17:57;94901.94;;;12.32;100.00
12775;BME280;6451;42.630;23.382;2023-02-28T11:20:28;94895.69;;;12.32;100.00
12775;BME280;6451;42.630;23.382;2023-02-28T11:22:56;94900.34;;;12.31;100.00
12775;BME280;6451;42.630;23.382;2023-02-28T11:25:25;94900.59;;;12.14;100.00
12775;BME280;6451;42.630;23.382;2023-02-28T11:27:55;94876.09;;;11.65;100.00
12775;BME280;6451;42.630;23.382;2023-02-28T11:30:35;94900.50;;;11.86;100.00
12775;BME280;6451;42.630;23.382;2023-02-28T11:35:57;94891.00;;;11.92;100.00
12775;BME280;6451;42.630;23.382;2023-02-28T11:38:26;94894.50;;;11.92;100.00
12775;BME280;6451;42.630;23.382;2023-02-28T11:41:05;94885.34;;;11.97;100.00
12775;BME280;6451;42.630;23.382;2023-02-28T11:43:51;94888.69;;;12.18;100.00
12775;BME280;6451;42.630;23.382;2023-02-28T11:46:26;94878.53;;;11.91;100.00
12775;BME280;6451;42.630;23.382;2023-02-28T11:49:04;94861.28;;;11.75;100.00
12775;BME280;6451;42.630;23.382;2023-02-28T11:51:42;94886.34;;;12.05;100.00
12775;BME280;6451;42.630;23.382;2023-02-28T11:54:25;94882.25;;;11.86;100.00
12775;BME280;6451;42.630;23.382;2023-02-28T11:57:00;94867.97;;;11.53;100.00
12775;BME280;6451;42.630;23.382;2023-02-28T11:59:45;94861.47;;;11.33;100.00
12775;BME280;6451;42.630;23.382;2023-02-28T12:02:25;94886.84;;;11.49;100.00
12775;BME280;6451;42.630;23.382;2023-02-28T12:05:14;94888.47;;;11.62;100.00
12775;BME280;6451;42.630;23.382;2023-02-28T12:07:57;94885.66;;;11.59;100.00
12775;BME280;6451;42.630;23.382;2023-02-28T12:10:29;94886.41;;;11.72;100.00
12775;BME280;6451;42.630;23.382;2023-02-28T12:13:11;94880.34;;;11.99;100.00
12775;BME280;6451;42.630;23.382;2023-02-28T12:16:01;94873.75;;;11.76;100.00
12775;BME280;6451;42.630;23.382;2023-02-28T12:18:46;94873.53;;;11.81;100.00
12775;BME280;6451;42.630;23.382;2023-02-28T12:21:25;94879.63;;;12.14;100.00
12775;BME280;6451;42.630;23.382;2023-02-28T12:24:29;94883.72;;;12.20;100.00
12775;BME280;6451;42.630;23.382;2023-02-28T12:27:06;94878.94;;;12.17;100.00
12775;BME280;6451;42.630;23.382;2023-02-28T12:29:45;94867.97;;;12.14;100.00
12775;BME280;6451;42.630;23.382;2023-02-28T12:32:17;94879.19;;;12.00;100.00
12775;BME280;6451;42.630;23.382;2023-02-28T12:34:49;94823.31;;;11.78;100.00
12775;BME280;6451;42.630;23.382;2023-02-28T12:37:22;94878.72;;;12.22;100.00
12775;BME280;6451;42.630;23.382;2023-02-28T12:39:56;94884.72;;;12.04;100.00
12775;BME280;6451;42.630;23.382;2023-02-28T12:42:31;94874.69;;;12.04;100.00
12775;BME280;6451;42.630;23.382;2023-02-28T12:45:01;94886.81;;;11.82;100.00
12775;BME280;6451;42.630;23.382;2023-02-28T12:47:29;94874.53;;;11.76;100.00
12775;BME280;6451;42.630;23.382;2023-02-28T12:49:59;94879.97;;;11.64;100.00
12775;BME280;6451;42.630;23.382;2023-02-28T12:52:34;94856.06;;;11.69;100.00
12775;BME280;6451;42.630;23.382;2023-02-28T12:55:07;94884.72;;;12.04;100.00
12775;BME280;6451;42.630;23.382;2023-02-28T12:57:40;94872.66;;;11.89;100.00
12775;BME280;6451;42.630;23.382;2023-02-28T13:00:11;94876.34;;;11.72;100.00
12775;BME280;6451;42.630;23.382;2023-02-28T13:02:58;94877.06;;;11.81;100.00
12775;BME280;6451;42.630;23.382;2023-02-28T13:05:45;94868.06;;;11.56;100.00
12775;BME280;6451;42.630;23.382;2023-02-28T13:08:31;94882.34;;;11.53;100.00
12775;BME280;6451;42.630;23.382;2023-02-28T13:11:07;94869.31;;;11.71;100.00
12775;BME280;6451;42.630;23.382;2023-02-28T13:13:57;94859.72;;;11.74;100.00
12775;BME280;6451;42.630;23.382;2023-02-28T13:16:24;94858.56;;;11.75;100.00
12775;BME280;6451;42.630;23.382;2023-02-28T13:18:51;94857.19;;;11.56;100.00
12775;BME280;6451;42.630;23.382;2023-02-28T13:21:26;94851.53;;;11.49;100.00
12775;BME280;6451;42.630;23.382;2023-02-28T13:24:03;94859.69;;;11.61;100.00
12775;BME280;6451;42.630;23.382;2023-02-28T13:29:34;94879.63;;;11.53;100.00
12775;BME280;6451;42.630;23.382;2023-02-28T13:32:28;94868.41;;;11.30;100.00
12775;BME280;6451;42.630;23.382;2023-02-28T13:35:14;94869.72;;;11.24;100.00